Flood From: 24-02-2018 06:00 Until: 25-02-2018 06:00 warning for: Flood Level: Yellow info button

Although rather usual in this region, locally or potentially dangerous phenomena are expected. (such as local winds, summer thunderstorms, rising streams or high waves) Be aware and pay attention to the latest weather updates, especially if you carry out activities exposed to weather or close to a stream or shoreline. 


Meteo18 Weather Cam more information Meteo18 Weather Cam


Thunder radar more information blitzortung!


Rain radar more information rain snow radar


Visit our other weather sites:

Template documentation
and downloads

And another site



Weather Underground History page Text

Daily Summary for April 15, 2017 Units:  Metric    English   Both
« Previous Day
Next Day »
Daily Weekly Monthly Yearly Custom
  High: Low: Average:
Temperature: -17.8 °C -13.8 °C -11.9 °C
Dew Point: -17.8 °C -15.2 °C -13.9 °C
Humidity: Humidity % 64 % 78 %
Wind Speed: 0 km/h 0 km/h 6.1 km/h
Wind Gust: 0 km/h - -
Wind:- - West
Pressure: 0 hPa 34496.6 hPa -
Precipitation: 0 mm    
Historical Graphs
 
 
Tabular Data for April 15, 2017
Time Temperature Dew Point Pressure Wind Wind Speed Wind Gust Humidity Rainfall Rate (Hourly)
-17.8 °C -17.8 °C 0 hPa Calm     Humidity % 0 mm
00:02 -11.8 °C -14.4 °C 34496.6 hPa Calm   7.7 km/h 72 % 0 mm
00:07 -11.8 °C -14.5 °C 34496.6 hPa Calm   5.1 km/h 72 % 0 mm
00:12 -11.8 °C -14.5 °C 34496.6 hPa NW 5.1 km/h 5.1 km/h 72 % 0 mm
00:17 -11.8 °C -14.5 °C 34496.6 hPa NW 5.1 km/h 5.1 km/h 72 % 0 mm
00:22 -11.8 °C -14.5 °C 34496.6 hPa NW 5.1 km/h 5.1 km/h 72 % 0 mm
00:32 -11.8 °C -14.5 °C 34496.6 hPa NW 2.6 km/h 5.1 km/h 72 % 0 mm
00:37 -11.9 °C -14.6 °C 34510.1 hPa NW 2.6 km/h 5.1 km/h 72 % 0 mm
00:42 -11.8 °C -14.5 °C 34496.6 hPa NW 2.6 km/h 5.1 km/h 72 % 0 mm
00:52 -11.9 °C -14.6 °C 34496.6 hPa NNW 2.6 km/h 5.1 km/h 72 % 0 mm
00:57 -11.9 °C -14.6 °C 34496.6 hPa NNW 2.6 km/h 5.1 km/h 72 % 0 mm
01:02 -12.1 °C -14.7 °C 34496.6 hPa Calm   5.1 km/h 72 % 0 mm
01:12 -12.6 °C -14.7 °C 34496.6 hPa West 2.6 km/h 5.1 km/h 77 % 0 mm
01:17 -12.7 °C -14.7 °C 34510.1 hPa Calm   5.1 km/h 78 % 0 mm
01:22 -12.7 °C -14.7 °C 34510.1 hPa Calm   2.6 km/h 78 % 0 mm
01:32 -12.8 °C -14.7 °C 34510.1 hPa Calm   2.6 km/h 79 % 0 mm
01:37 -12.9 °C -14.7 °C 34510.1 hPa WNW 2.6 km/h 2.6 km/h 80 % 0 mm
01:42 -12.9 °C -14.7 °C 34510.1 hPa Calm   2.6 km/h 80 % 0 mm
01:52 -13 °C -14.7 °C 34510.1 hPa Calm   2.6 km/h 81 % 0 mm
01:57 -12.8 °C -14.7 °C 34510.1 hPa Calm   2.6 km/h 80 % 0 mm
02:02 -12.8 °C -14.7 °C 34510.1 hPa Calm   2.6 km/h 80 % 0 mm
02:07 -12.9 °C -14.7 °C 34510.1 hPa Calm   2.6 km/h 80 % 0 mm
02:12 -12.9 °C -14.8 °C 34510.1 hPa Calm   2.6 km/h 80 % 0 mm
02:17 -13.1 °C -14.8 °C 34510.1 hPa Calm   2.6 km/h 81 % 0 mm
02:22 -13.1 °C -14.7 °C 34510.1 hPa Calm   2.6 km/h 82 % 0 mm
02:27 -13.2 °C -14.7 °C 34510.1 hPa WSW 2.6 km/h 2.6 km/h 83 % 0 mm
02:32 -13.4 °C -15.2 °C 34510.1 hPa SW 5.1 km/h 5.1 km/h 81 % 0 mm
02:42 -13.2 °C -14.7 °C 34510.1 hPa West 5.1 km/h 10.3 km/h 83 % 0 mm
02:47 -13.1 °C -14.7 °C 34510.1 hPa WNW 5.1 km/h 10.3 km/h 82 % 0 mm
02:52 -13 °C -14.7 °C 34510.1 hPa WNW 2.6 km/h 10.3 km/h 81 % 0 mm
02:57 -13 °C -14.7 °C 34510.1 hPa Calm   10.3 km/h 81 % 0 mm
03:02 -13.1 °C -14.8 °C 34510.1 hPa Calm   7.7 km/h 81 % 0 mm
03:12 -12.9 °C -14.8 °C 34510.1 hPa Calm   5.1 km/h 80 % 0 mm
03:17 -13 °C -14.8 °C 34510.1 hPa North 2.6 km/h 5.1 km/h 80 % 0 mm
03:22 -13 °C -14.7 °C 34510.1 hPa Calm   5.1 km/h 81 % 0 mm
03:27 -13 °C -14.8 °C 34510.1 hPa Calm   5.1 km/h 80 % 0 mm
03:37 -13.1 °C -14.8 °C 34510.1 hPa Calm   2.6 km/h 81 % 0 mm
03:42 -13.1 °C -14.7 °C 34510.1 hPa Calm   2.6 km/h 82 % 0 mm
03:52 -12.9 °C -14.6 °C 34510.1 hPa Calm   2.6 km/h 82 % 0 mm
03:57 -12.9 °C -14.5 °C 34510.1 hPa West 5.1 km/h 5.1 km/h 82 % 0 mm
04:02 -12.8 °C -14.4 °C 34510.1 hPa WNW 5.1 km/h 7.7 km/h 82 % 0 mm
04:07 -12.7 °C -14.3 °C 34510.1 hPa WNW 10.3 km/h 18.2 km/h 82 % 0 mm
04:12 -12.6 °C -14.2 °C 34510.1 hPa WSW 7.7 km/h 18.2 km/h 82 % 0 mm
04:17 -12.6 °C -14.2 °C 34510.1 hPa WNW 10.3 km/h 18.2 km/h 82 % 0 mm
04:22 -12.6 °C -14.1 °C 34510.1 hPa WNW 15.6 km/h 18.2 km/h 83 % 0 mm
04:27 -12.4 °C -14 °C 34510.1 hPa WNW 2.6 km/h 20.8 km/h 82 % 0 mm
04:32 -12.4 °C -14.1 °C 34510.1 hPa West 12.9 km/h 23.3 km/h 81 % 0 mm
04:37 -12.4 °C -14.2 °C 34496.6 hPa Calm   23.3 km/h 81 % 0 mm
04:42 -12.5 °C -14.2 °C 34496.6 hPa Calm   23.3 km/h 81 % 0 mm
04:47 -12.6 °C -14.2 °C 34496.6 hPa Calm   15.6 km/h 82 % 0 mm
04:52 -12.7 °C -14.3 °C 34496.6 hPa NW 2.6 km/h 15.6 km/h 82 % 0 mm
04:57 -12.8 °C -14.3 °C 34496.6 hPa NNW 2.6 km/h 2.6 km/h 83 % 0 mm
05:02 -12.8 °C -14.3 °C 34496.6 hPa NW 5.1 km/h 5.1 km/h 83 % 0 mm
05:12 -12.8 °C -14.3 °C 34496.6 hPa Calm   7.7 km/h 84 % 0 mm
05:17 -12.9 °C -14.4 °C 34496.6 hPa Calm   7.7 km/h 83 % 0 mm
05:22 -13.1 °C -14.6 °C 34496.6 hPa North 2.6 km/h 7.7 km/h 83 % 0 mm
05:27 -13.1 °C -14.4 °C 34510.1 hPa Calm   7.7 km/h 85 % 0 mm
05:32 -13.2 °C -14.4 °C 34510.1 hPa WNW 2.6 km/h 5.1 km/h 86 % 0 mm
05:37 -13.2 °C -14.4 °C 34510.1 hPa Calm   20.8 km/h 86 % 0 mm
05:42 -13.3 °C -14.7 °C 34510.1 hPa WSW 10.3 km/h 20.8 km/h 84 % 0 mm
05:52 -13.4 °C -14.6 °C 34510.1 hPa Calm   18.2 km/h 86 % 0 mm
05:57 -13.4 °C -14.6 °C 34510.1 hPa Calm   18.2 km/h 86 % 0 mm
06:02 -13.4 °C -14.7 °C 34510.1 hPa South 2.6 km/h 10.3 km/h 86 % 0 mm
06:12 -13.7 °C -14.8 °C 34510.1 hPa Calm   7.7 km/h 87 % 0 mm
06:17 -13.8 °C -14.8 °C 34510.1 hPa Calm   7.7 km/h 88 % 0 mm
06:22 -13.7 °C -14.8 °C 34510.1 hPa Calm   5.1 km/h 88 % 0 mm
06:32 -13.7 °C -14.6 °C 34510.1 hPa Calm   2.6 km/h 89 % 0 mm
06:37 -13.6 °C -14.6 °C 34510.1 hPa Calm   2.6 km/h 89 % 0 mm
06:42 -13.6 °C -14.6 °C 34510.1 hPa Calm     89 % 0 mm
06:47 -13.7 °C -14.8 °C 34510.1 hPa Calm     88 % 0 mm
06:52 -13.7 °C -14.7 °C 34510.1 hPa Calm     89 % 0 mm
06:57 -13.7 °C -14.7 °C 34520.3 hPa Calm     89 % 0 mm
07:02 -13.7 °C -14.7 °C 34520.3 hPa Calm     89 % 0 mm
07:07 -13.7 °C -14.6 °C 34520.3 hPa Calm     90 % 0 mm
07:12 -13.7 °C -14.6 °C 34520.3 hPa Calm     90 % 0 mm
07:17 -13.7 °C -14.5 °C 34533.8 hPa Calm     90 % 0 mm
07:22 -13.7 °C -14.5 °C 34533.8 hPa Calm     90 % 0 mm
07:27 -13.6 °C -14.4 °C 34533.8 hPa Calm     90 % 0 mm
07:32 -13.5 °C -14.3 °C 34533.8 hPa West 2.6 km/h 5.1 km/h 90 % 0 mm
07:37 -13.4 °C -14.3 °C 34533.8 hPa WNW 2.6 km/h 7.7 km/h 90 % 0 mm
07:42 -13.4 °C -14.2 °C 34533.8 hPa Calm   10.3 km/h 90 % 0 mm
07:52 -13.3 °C -14.2 °C 34544 hPa WNW 7.7 km/h 10.3 km/h 90 % 0 mm
07:57 -13.3 °C -14.2 °C 34544 hPa NW 5.1 km/h 10.3 km/h 89 % 0 mm
08:02 -13.3 °C -14.2 °C 34544 hPa WNW 2.6 km/h 20.8 km/h 89 % 0 mm
08:07 -13.3 °C -14.2 °C 34544 hPa West 5.1 km/h 20.8 km/h 89 % 0 mm
08:12 -13.2 °C -14.2 °C 34544 hPa WNW 2.6 km/h 20.8 km/h 89 % 0 mm
08:17 -13.2 °C -14.2 °C 34544 hPa WSW 2.6 km/h 18.2 km/h 89 % 0 mm
08:22 -13.2 °C -14.2 °C 34554.1 hPa WNW 5.1 km/h 10.3 km/h 89 % 0 mm
08:27 -13.2 °C -14.2 °C 34554.1 hPa West 5.1 km/h 7.7 km/h 88 % 0 mm
08:32 -13.2 °C -14.2 °C 34554.1 hPa West 7.7 km/h 7.7 km/h 88 % 0 mm
08:37 -13.2 °C -14.2 °C 34554.1 hPa West 2.6 km/h 12.9 km/h 88 % 0 mm
08:42 -13.2 °C -14.2 °C 34554.1 hPa WNW 5.1 km/h 15.6 km/h 88 % 0 mm
08:47 -13.2 °C -14.2 °C 34554.1 hPa WNW 2.6 km/h 15.6 km/h 88 % 0 mm
08:52 -13.2 °C -14.2 °C 34554.1 hPa WNW 2.6 km/h 15.6 km/h 88 % 0 mm
09:02 -13.2 °C -14.2 °C 34554.1 hPa WNW 2.6 km/h 18.2 km/h 88 % 0 mm
09:12 -13.1 °C -14.2 °C 34554.1 hPa SW 5.1 km/h 18.2 km/h 88 % 0 mm
09:17 -13.1 °C -14.1 °C 34554.1 hPa West 5.1 km/h 15.6 km/h 88 % 0 mm
09:22 -13 °C -14.1 °C 34567.7 hPa NW 5.1 km/h 10.3 km/h 88 % 0 mm
09:27 -12.9 °C -14.1 °C 34567.7 hPa North 2.6 km/h 7.7 km/h 87 % 0 mm
09:32 -12.9 °C -14.1 °C 34567.7 hPa WNW 10.3 km/h 10.3 km/h 87 % 0 mm
09:37 -12.9 °C -14.1 °C 34567.7 hPa Calm   7.7 km/h 86 % 0 mm
09:42 -12.8 °C -14.1 °C 34567.7 hPa NNW 7.7 km/h 12.9 km/h 86 % 0 mm
09:47 -12.8 °C -14 °C 34567.7 hPa WNW 5.1 km/h 12.9 km/h 86 % 0 mm
09:52 -12.7 °C -14.1 °C 34567.7 hPa Calm   12.9 km/h 85 % 0 mm
09:57 -12.7 °C -14 °C 34567.7 hPa WNW 5.1 km/h 15.6 km/h 85 % 0 mm
10:02 -12.6 °C -13.9 °C 34567.7 hPa WNW 10.3 km/h 15.6 km/h 85 % 0 mm
10:12 -12.3 °C -13.8 °C 34577.8 hPa Calm   10.3 km/h 84 % 0 mm
10:17 -12.3 °C -13.9 °C 34577.8 hPa NNW 2.6 km/h 12.9 km/h 82 % 0 mm
10:22 -12.2 °C -13.8 °C 34577.8 hPa NW 7.7 km/h 10.3 km/h 82 % 0 mm
10:32 -12.2 °C -13.8 °C 34591.4 hPa NNW 2.6 km/h 18.2 km/h 82 % 0 mm
10:37 -12.1 °C -13.7 °C 34591.4 hPa Calm   18.2 km/h 82 % 0 mm
10:42 -12.1 °C -13.7 °C 34591.4 hPa WNW 7.7 km/h 18.2 km/h 82 % 0 mm
10:52 -12 °C -13.7 °C 34591.4 hPa WNW 10.3 km/h 18.2 km/h 81 % 0 mm
10:57 -12 °C -13.8 °C 34591.4 hPa WNW 7.7 km/h 20.8 km/h 80 % 0 mm
11:02 -12 °C -13.8 °C 34591.4 hPa NNW 5.1 km/h 23.3 km/h 80 % 0 mm
11:12 -11.8 °C -13.7 °C 34591.4 hPa West 12.9 km/h 23.3 km/h 80 % 0 mm
11:17 -11.8 °C -13.6 °C 34601.5 hPa North 5.1 km/h 20.8 km/h 80 % 0 mm
11:22 -11.5 °C -13.3 °C 34601.5 hPa WNW 5.1 km/h 20.8 km/h 80 % 0 mm
11:32 -11.5 °C -13.4 °C 34601.5 hPa NW 10.3 km/h 20.8 km/h 79 % 0 mm
11:42 -11.4 °C -13.3 °C 34601.5 hPa WSW 7.7 km/h 15.6 km/h 80 % 0 mm
11:47 -11.5 °C -13.4 °C 34601.5 hPa West 2.6 km/h 15.6 km/h 79 % 0 mm
11:57 -11.5 °C -13.4 °C 34601.5 hPa WNW 7.7 km/h 18.2 km/h 79 % 0 mm
12:02 -11.5 °C -13.4 °C 34601.5 hPa NW 5.1 km/h 18.2 km/h 79 % 0 mm
12:12 -11.4 °C -13.5 °C 34601.5 hPa WNW 5.1 km/h 15.6 km/h 78 % 0 mm
12:17 -11.4 °C -13.5 °C 34601.5 hPa WNW 5.1 km/h 15.6 km/h 78 % 0 mm
12:22 -11.4 °C -13.6 °C 34601.5 hPa WNW 7.7 km/h 15.6 km/h 77 % 0 mm
12:32 -11.3 °C -13.6 °C 34601.5 hPa WNW 5.1 km/h 15.6 km/h 76 % 0 mm
12:37 -11.3 °C -13.7 °C 34601.5 hPa WNW 5.1 km/h 15.6 km/h 75 % 0 mm
12:42 -11.2 °C -13.7 °C 34601.5 hPa WNW 12.9 km/h 20.8 km/h 74 % 0 mm
12:52 -11.1 °C -13.7 °C 34601.5 hPa West 5.1 km/h 20.8 km/h 73 % 0 mm
12:57 -10.9 °C -13.7 °C 34601.5 hPa West 7.7 km/h 20.8 km/h 72 % 0 mm
13:02 -10.9 °C -13.6 °C 34601.5 hPa West 2.6 km/h 20.8 km/h 73 % 0 mm
13:07 -10.8 °C -13.6 °C 34591.4 hPa West 10.3 km/h 20.8 km/h 72 % 0 mm
13:12 -10.9 °C -13.7 °C 34601.5 hPa West 7.7 km/h 20.8 km/h 71 % 0 mm
13:17 -10.9 °C -13.7 °C 34591.4 hPa WNW 2.6 km/h 20.8 km/h 71 % 0 mm
13:22 -10.8 °C -13.7 °C 34601.5 hPa WSW 5.1 km/h 20.8 km/h 71 % 0 mm
13:27 -10.8 °C -13.6 °C 34591.4 hPa WSW 15.6 km/h 18.2 km/h 71 % 0 mm
13:32 -10.7 °C -13.7 °C 34601.5 hPa West 5.1 km/h 15.6 km/h 69 % 0 mm
13:37 -10.6 °C -13.7 °C 34601.5 hPa SW 5.1 km/h 15.6 km/h 69 % 0 mm
13:42 -10.6 °C -13.7 °C 34601.5 hPa Calm   15.6 km/h 69 % 0 mm
13:47 -10.6 °C -13.7 °C 34591.4 hPa WNW 5.1 km/h 12.9 km/h 69 % 0 mm
13:52 -10.4 °C -13.6 °C 34601.5 hPa West 12.9 km/h 12.9 km/h 69 % 0 mm
13:57 -10.4 °C -13.5 °C 34601.5 hPa West 10.3 km/h 23.3 km/h 69 % 0 mm
14:02 -10.4 °C -13.8 °C 34601.5 hPa NW 5.1 km/h 28.5 km/h 66 % 0 mm
14:12 -10.4 °C -13.8 °C 34591.4 hPa WSW 15.6 km/h 28.5 km/h 67 % 0 mm
14:17 -10.4 °C -13.8 °C 34591.4 hPa West 12.9 km/h 23.3 km/h 66 % 0 mm
14:22 -10.4 °C -13.8 °C 34591.4 hPa WSW 12.9 km/h 23.3 km/h 66 % 0 mm
14:27 -10.4 °C -13.7 °C 34591.4 hPa NNW 7.7 km/h 23.3 km/h 67 % 0 mm
14:32 -10.3 °C -13.6 °C 34591.4 hPa WSW 5.1 km/h 23.3 km/h 68 % 0 mm
14:37 -10.3 °C -13.6 °C 34591.4 hPa WSW 10.3 km/h 20.8 km/h 67 % 0 mm
14:42 -10.2 °C -13.6 °C 34591.4 hPa SW 7.7 km/h 23.3 km/h 66 % 0 mm
14:47 -10.2 °C -13.8 °C 34591.4 hPa West 5.1 km/h 25.9 km/h 65 % 0 mm
14:57 -10.2 °C -13.7 °C 34591.4 hPa WSW 15.6 km/h 25.9 km/h 66 % 0 mm
15:02 -10.3 °C -13.7 °C 34601.5 hPa WSW 18.2 km/h 28.5 km/h 67 % 0 mm
15:12 -10.2 °C -13.9 °C 34601.5 hPa West 5.1 km/h 28.5 km/h 64 % 0 mm
15:17 -10.2 °C -13.7 °C 34601.5 hPa WNW 2.6 km/h 28.5 km/h 66 % 0 mm
15:22 -10.2 °C -13.6 °C 34591.4 hPa West 2.6 km/h 20.8 km/h 67 % 0 mm
15:32 -10.3 °C -13.8 °C 34591.4 hPa West 12.9 km/h 33.6 km/h 66 % 0 mm
15:42 -10.3 °C -13.6 °C 34601.5 hPa West 2.6 km/h 36.2 km/h 68 % 0 mm
15:47 -10.2 °C -13.6 °C 34601.5 hPa NW 15.6 km/h 36.2 km/h 67 % 0 mm
15:52 -10.3 °C -13.6 °C 34601.5 hPa WSW 12.9 km/h 36.2 km/h 67 % 0 mm
15:57 -10.3 °C -13.7 °C 34601.5 hPa West 12.9 km/h 36.2 km/h 67 % 0 mm
16:02 -10.3 °C -13.7 °C 34601.5 hPa West 15.6 km/h 36.2 km/h 67 % 0 mm
16:17 -10.5 °C -13.6 °C 34601.5 hPa WNW 10.3 km/h 41.4 km/h 69 % 0 mm
16:22 -10.5 °C -13.6 °C 34601.5 hPa WNW 7.7 km/h 36.2 km/h 69 % 0 mm
16:32 -10.4 °C -13.7 °C 34601.5 hPa West 10.3 km/h 31.1 km/h 68 % 0 mm
16:37 -10.4 °C -13.5 °C 34601.5 hPa WNW 18.2 km/h 28.5 km/h 69 % 0 mm
16:42 -10.4 °C -13.4 °C 34601.5 hPa WNW 20.8 km/h 28.5 km/h 70 % 0 mm
16:47 -10.3 °C -13.3 °C 34601.5 hPa WNW 25.9 km/h 28.5 km/h 70 % 0 mm
16:52 -10.4 °C -13.4 °C 34601.5 hPa WSW 15.6 km/h 28.5 km/h 70 % 0 mm
16:57 -10.4 °C -13.4 °C 34601.5 hPa WSW 15.6 km/h 28.5 km/h 70 % 0 mm
17:02 -10.4 °C -13.4 °C 34601.5 hPa West 18.2 km/h 28.5 km/h 70 % 0 mm
17:07 -10.3 °C -13.4 °C 34601.5 hPa NW 20.8 km/h 28.5 km/h 69 % 0 mm
17:12 -10.3 °C -13.4 °C 34591.4 hPa West 7.7 km/h 28.5 km/h 69 % 0 mm
17:17 -10.3 °C -13.3 °C 34601.5 hPa West 10.3 km/h 23.3 km/h 70 % 0 mm
17:22 -10.4 °C -13.5 °C 34591.4 hPa West 15.6 km/h 23.3 km/h 69 % 0 mm
17:32 -10.4 °C -13.4 °C 34591.4 hPa WSW 7.7 km/h 25.9 km/h 70 % 0 mm
17:42 -10.5 °C -13.3 °C 34601.5 hPa WNW 23.3 km/h 33.6 km/h 71 % 0 mm
17:47 -10.6 °C -13.3 °C 34591.4 hPa WSW 10.3 km/h 33.6 km/h 72 % 0 mm
17:52 -10.6 °C -13.3 °C 34601.5 hPa WNW 10.3 km/h 33.6 km/h 72 % 0 mm
17:57 -10.6 °C -13.3 °C 34601.5 hPa West 7.7 km/h 31.1 km/h 72 % 0 mm
18:02 -10.5 °C -13.2 °C 34601.5 hPa West 7.7 km/h 31.1 km/h 72 % 0 mm
18:07 -10.6 °C -13.4 °C 34601.5 hPa WNW 15.6 km/h 31.1 km/h 71 % 0 mm
18:12 -10.6 °C -13.4 °C 34601.5 hPa NW 25.9 km/h 31.1 km/h 71 % 0 mm
18:17 -10.7 °C -13.4 °C 34601.5 hPa West 5.1 km/h 31.1 km/h 72 % 0 mm
18:22 -10.7 °C -13.3 °C 34601.5 hPa West 12.9 km/h 31.1 km/h 73 % 0 mm
18:27 -10.7 °C -13.4 °C 34601.5 hPa WSW 18.2 km/h 28.5 km/h 72 % 0 mm
18:32 -10.8 °C -13.4 °C 34601.5 hPa WNW 12.9 km/h 25.9 km/h 73 % 0 mm
18:37 -10.8 °C -13.4 °C 34601.5 hPa NW 18.2 km/h 25.9 km/h 73 % 0 mm
18:42 -10.9 °C -13.4 °C 34601.5 hPa WNW 12.9 km/h 33.6 km/h 74 % 0 mm
18:52 -10.9 °C -13.3 °C 34601.5 hPa West 5.1 km/h 33.6 km/h 75 % 0 mm
18:57 -10.9 °C -13.3 °C 34601.5 hPa West 5.1 km/h 20.8 km/h 75 % 0 mm
19:02 -10.9 °C -13.3 °C 34601.5 hPa West 15.6 km/h 20.8 km/h 75 % 0 mm
19:07 -10.9 °C -13.3 °C 34611.7 hPa WNW 7.7 km/h 20.8 km/h 75 % 0 mm
19:12 -10.9 °C -13.3 °C 34611.7 hPa West 5.1 km/h 20.8 km/h 75 % 0 mm
19:17 -10.9 °C -13.2 °C 34611.7 hPa West 7.7 km/h 15.6 km/h 76 % 0 mm
19:22 -10.9 °C -13.2 °C 34611.7 hPa WNW 7.7 km/h 20.8 km/h 76 % 0 mm
19:32 -11 °C -13.3 °C 34611.7 hPa West 7.7 km/h 20.8 km/h 76 % 0 mm
19:37 -11 °C -13.3 °C 34611.7 hPa WNW 15.6 km/h 20.8 km/h 76 % 0 mm
19:42 -11 °C -13.3 °C 34611.7 hPa West 5.1 km/h 20.8 km/h 76 % 0 mm
19:47 -11 °C -13.2 °C 34611.7 hPa West 5.1 km/h 20.8 km/h 77 % 0 mm
19:52 -11 °C -13.3 °C 34611.7 hPa WSW 7.7 km/h 20.8 km/h 76 % 0 mm
19:57 -11 °C -13.3 °C 34611.7 hPa West 5.1 km/h 23.3 km/h 76 % 0 mm
20:02 -11 °C -13.3 °C 34611.7 hPa WSW 10.3 km/h 25.9 km/h 76 % 0 mm
20:07 -11 °C -13.3 °C 34611.7 hPa WNW 18.2 km/h 25.9 km/h 76 % 0 mm
20:12 -11.1 °C -13.3 °C 34611.7 hPa WSW 10.3 km/h 25.9 km/h 76 % 0 mm
20:17 -11.1 °C -13.3 °C 34611.7 hPa WSW 18.2 km/h 23.3 km/h 76 % 0 mm
20:22 -11.1 °C -13.3 °C 34611.7 hPa WSW 10.3 km/h 23.3 km/h 77 % 0 mm
20:27 -11.2 °C -13.3 °C 34611.7 hPa West 7.7 km/h 23.3 km/h 77 % 0 mm
20:32 -11.2 °C -13.3 °C 34611.7 hPa West 10.3 km/h 20.8 km/h 77 % 0 mm
20:37 -11.2 °C -13.3 °C 34625.2 hPa WSW 2.6 km/h 18.2 km/h 77 % 0 mm
20:47 -11.2 °C -13.3 °C 34611.7 hPa WSW 5.1 km/h 12.9 km/h 78 % 0 mm
20:52 -11.3 °C -13.3 °C 34611.7 hPa WSW 10.3 km/h 15.6 km/h 78 % 0 mm
20:57 -11.3 °C -13.3 °C 34625.2 hPa West 2.6 km/h 15.6 km/h 78 % 0 mm
21:07 -11.3 °C -13.4 °C 34635.4 hPa West 2.6 km/h 18.2 km/h 78 % 0 mm
21:12 -11.3 °C -13.3 °C 34635.4 hPa WNW 5.1 km/h 18.2 km/h 79 % 0 mm
21:17 -11.4 °C -13.4 °C 34635.4 hPa West 5.1 km/h 10.3 km/h 79 % 0 mm
21:22 -11.4 °C -13.4 °C 34635.4 hPa West 2.6 km/h 10.3 km/h 79 % 0 mm
21:27 -11.4 °C -13.4 °C 34635.4 hPa Calm   10.3 km/h 79 % 0 mm
21:37 -11.5 °C -13.3 °C 34635.4 hPa Calm   7.7 km/h 80 % 0 mm
21:42 -11.5 °C -13.3 °C 34645.6 hPa Calm   7.7 km/h 80 % 0 mm
21:47 -11.6 °C -13.4 °C 34645.6 hPa Calm   7.7 km/h 80 % 0 mm
21:52 -11.6 °C -13.3 °C 34645.6 hPa Calm   5.1 km/h 81 % 0 mm
21:57 -11.6 °C -13.3 °C 34645.6 hPa Calm   5.1 km/h 81 % 0 mm
22:02 -11.7 °C -13.4 °C 34645.6 hPa WNW 5.1 km/h 5.1 km/h 81 % 0 mm
22:07 -11.7 °C -13.4 °C 34645.6 hPa West 5.1 km/h 7.7 km/h 81 % 0 mm
22:17 -11.6 °C -13.3 °C 34645.6 hPa West 2.6 km/h 10.3 km/h 81 % 0 mm
22:27 -11.6 °C -13.3 °C 34645.6 hPa West 7.7 km/h 10.3 km/h 81 % 0 mm
22:32 -11.6 °C -13.3 °C 34645.6 hPa WSW 5.1 km/h 18.2 km/h 81 % 0 mm
22:37 -11.6 °C -13.3 °C 34645.6 hPa WNW 2.6 km/h 18.2 km/h 81 % 0 mm
22:42 -11.6 °C -13.3 °C 34645.6 hPa WSW 10.3 km/h 18.2 km/h 81 % 0 mm
22:47 -11.6 °C -13.3 °C 34645.6 hPa West 5.1 km/h 18.2 km/h 81 % 0 mm
22:52 -11.6 °C -13.3 °C 34645.6 hPa WSW 2.6 km/h 18.2 km/h 81 % 0 mm
22:57 -11.6 °C -13.3 °C 34645.6 hPa West 5.1 km/h 18.2 km/h 81 % 0 mm
23:02 -11.6 °C -13.3 °C 34645.6 hPa WSW 7.7 km/h 15.6 km/h 81 % 0 mm
23:07 -11.6 °C -13.3 °C 34645.6 hPa West 10.3 km/h 15.6 km/h 81 % 0 mm
23:12 -11.6 °C -13.3 °C 34645.6 hPa West 5.1 km/h 15.6 km/h 81 % 0 mm
23:17 -11.6 °C -13.3 °C 34645.6 hPa West 5.1 km/h 18.2 km/h 81 % 0 mm
23:27 -11.6 °C -13.3 °C 34645.6 hPa SW 15.6 km/h 20.8 km/h 81 % 0 mm
23:32 -11.6 °C -13.3 °C 34645.6 hPa West 18.2 km/h 28.5 km/h 81 % 0 mm
23:37 -11.6 °C -13.3 °C 34645.6 hPa West 7.7 km/h 28.5 km/h 81 % 0 mm
23:42 -11.6 °C -13.3 °C 34659.1 hPa WNW 7.7 km/h 28.5 km/h 81 % 0 mm
23:47 -11.6 °C -13.3 °C 34659.1 hPa WSW 5.1 km/h 25.9 km/h 81 % 0 mm
23:52 -11.6 °C -13.3 °C 34659.1 hPa West 7.7 km/h 25.9 km/h 81 % 0 mm
23:57 -11.7 °C -13.4 °C 34659.1 hPa WSW 18.2 km/h 25.9 km/h 81 % 0 mm
Meteo18
Compliments of Weather Underground - 4 mb

Script developed by  Jim McMurry - jmcmurry@mwt.net Adapted for the template by  Wim van der Kuil - Leuven-Template.eu

You find our weather info also at:

European Weather Network

Weather Underground

Equipment we use:

Weather-station
Davis Vue

Weather-program
Meteobridge

Weather-server
Raspberry PI 2 B+

Provider
1 and 1

Davis Vue

Meteobridge

Raspberry PI 2 B+

1 and 1